createdAt,value
2023-03-23T16:02:52.767Z,0.55
2023-03-23T16:07:54.566Z,0.68
2023-03-23T16:12:56.382Z,0.45
2023-03-23T16:17:57.941Z,0.47
2023-03-23T16:22:59.989Z,0.60
2023-03-23T16:28:02.067Z,0.40
2023-03-23T16:33:03.623Z,0.73
2023-03-23T16:38:07.340Z,0.50
2023-03-23T16:43:11.194Z,0.60
2023-03-23T16:48:16.926Z,0.57
2023-03-23T16:53:18.938Z,0.52
2023-03-23T16:58:20.797Z,0.70
2023-03-23T17:03:22.847Z,0.75
2023-03-23T17:08:24.504Z,0.52
2023-03-23T17:13:27.910Z,0.85
2023-03-23T17:18:29.551Z,0.60
2023-03-23T17:23:31.123Z,0.70
2023-03-23T17:28:32.734Z,0.43
2023-03-23T17:33:34.435Z,0.30
2023-03-23T17:38:35.936Z,0.47
2023-03-23T17:43:40.750Z,0.52
2023-03-23T17:48:42.369Z,0.80
2023-03-23T17:53:44.018Z,0.57
2023-03-23T17:58:45.751Z,0.47
2023-03-23T18:03:47.315Z,0.60
2023-03-23T18:08:48.890Z,1.20
2023-03-23T18:13:50.471Z,0.90
2023-03-23T18:18:52.122Z,0.82
2023-03-23T18:23:59.133Z,0.40
2023-03-23T18:29:01.829Z,0.32
2023-03-23T18:34:03.385Z,1.02
2023-03-23T18:39:06.135Z,0.47
2023-03-23T18:44:07.760Z,0.88
2023-03-23T18:49:09.757Z,0.35
2023-03-23T18:54:11.285Z,0.98
2023-03-23T18:59:12.971Z,0.65
2023-03-23T19:04:14.815Z,0.60
2023-03-23T19:09:17.018Z,1.00
2023-03-23T19:14:19.347Z,0.70
2023-03-23T19:19:21.779Z,1.02
2023-03-23T19:24:23.320Z,1.00
2023-03-23T19:29:27.458Z,1.00
2023-03-23T19:34:30.563Z,0.98
2023-03-23T19:39:32.659Z,0.80
2023-03-23T19:44:34.904Z,1.02
2023-03-23T19:49:36.702Z,0.63
2023-03-23T19:54:39.030Z,1.23
2023-03-23T20:04:43.235Z,1.00
2023-03-23T20:09:45.059Z,1.00
2023-03-23T20:14:47.130Z,1.48
2023-03-23T20:19:48.865Z,1.52
2023-03-23T20:24:50.510Z,1.52
2023-03-23T20:29:53.453Z,1.30
2023-03-23T20:34:56.966Z,1.50
2023-03-23T20:39:58.523Z,2.10
2023-03-23T20:45:01.275Z,1.92
2023-03-23T20:50:04.713Z,1.77
2023-03-23T20:55:08.186Z,2.10
2023-03-23T21:00:16.177Z,1.80
2023-03-23T21:05:17.771Z,3.35
2023-03-23T21:10:19.354Z,2.25
2023-03-23T21:15:21.478Z,2.47
2023-03-23T21:20:24.213Z,3.20
2023-03-23T21:25:34.076Z,3.42
2023-03-23T21:30:37.430Z,2.95
2023-03-23T21:35:39.885Z,2.60
2023-03-23T21:40:44.424Z,2.47
2023-03-23T21:45:46.381Z,2.75
2023-03-23T21:50:48.334Z,3.30
2023-03-23T21:55:54.625Z,2.53
2023-03-23T22:00:56.604Z,2.55
2023-03-23T22:05:59.669Z,2.65
2023-03-23T22:11:04.501Z,2.63
2023-03-23T22:16:09.625Z,2.95
2023-03-23T22:21:12.724Z,2.47
2023-03-23T22:26:16.303Z,1.80
2023-03-23T22:31:21.937Z,2.65
2023-03-23T22:36:25.854Z,2.70
2023-03-23T22:41:33.842Z,2.10
2023-03-23T22:46:35.834Z,2.10
2023-03-23T22:51:37.909Z,1.83
2023-03-23T22:56:39.815Z,1.75
2023-03-23T23:01:48.209Z,1.38
2023-03-23T23:07:00.399Z,1.20
2023-03-23T23:12:13.886Z,1.55
2023-03-23T23:17:15.665Z,1.58
2023-03-23T23:22:19.448Z,1.67
2023-03-23T23:27:21.431Z,1.80
2023-03-23T23:32:23.062Z,1.40
2023-03-23T23:37:24.588Z,1.65
2023-03-23T23:42:26.681Z,1.10
2023-03-23T23:47:28.460Z,0.90
2023-03-23T23:52:30.101Z,0.98
2023-03-23T23:57:31.621Z,1.30
